sensor_id;sensor_type;location;lat;lon;timestamp;P1;durP1;ratioP1;P2;durP2;ratioP2
12112;SDS011;6120;52.250;8.478;2023-02-15T00:01:47;21.73;;;11.15;;
12112;SDS011;6120;52.250;8.478;2023-02-15T00:04:15;19.83;;;10.35;;
12112;SDS011;6120;52.250;8.478;2023-02-15T00:06:43;19.35;;;9.45;;
12112;SDS011;6120;52.250;8.478;2023-02-15T00:09:10;20.63;;;10.65;;
12112;SDS011;6120;52.250;8.478;2023-02-15T00:11:37;22.77;;;11.43;;
12112;SDS011;6120;52.250;8.478;2023-02-15T00:16:51;21.33;;;9.93;;
12112;SDS011;6120;52.250;8.478;2023-02-15T00:19:19;19.65;;;10.07;;
12112;SDS011;6120;52.250;8.478;2023-02-15T00:21:47;21.42;;;11.23;;
12112;SDS011;6120;52.250;8.478;2023-02-15T00:24:15;20.13;;;10.57;;
12112;SDS011;6120;52.250;8.478;2023-02-15T00:26:43;20.70;;;10.88;;
12112;SDS011;6120;52.250;8.478;2023-02-15T00:29:10;19.90;;;10.38;;
12112;SDS011;6120;52.250;8.478;2023-02-15T00:34:06;23.05;;;10.98;;
12112;SDS011;6120;52.250;8.478;2023-02-15T00:36:34;21.70;;;10.77;;
12112;SDS011;6120;52.250;8.478;2023-02-15T00:39:00;21.25;;;10.00;;
12112;SDS011;6120;52.250;8.478;2023-02-15T00:41:27;19.23;;;11.10;;
12112;SDS011;6120;52.250;8.478;2023-02-15T00:43:53;19.85;;;10.45;;
12112;SDS011;6120;52.250;8.478;2023-02-15T00:46:20;22.00;;;10.85;;
12112;SDS011;6120;52.250;8.478;2023-02-15T00:48:47;21.73;;;11.05;;
12112;SDS011;6120;52.250;8.478;2023-02-15T00:51:13;20.05;;;10.82;;
12112;SDS011;6120;52.250;8.478;2023-02-15T00:53:40;22.63;;;10.38;;
12112;SDS011;6120;52.250;8.478;2023-02-15T00:56:07;19.73;;;10.65;;
12112;SDS011;6120;52.250;8.478;2023-02-15T00:58:33;20.00;;;10.77;;
12112;SDS011;6120;52.250;8.478;2023-02-15T01:01:04;22.35;;;10.50;;
12112;SDS011;6120;52.250;8.478;2023-02-15T01:03:32;20.63;;;11.05;;
12112;SDS011;6120;52.250;8.478;2023-02-15T01:05:59;24.60;;;11.32;;
12112;SDS011;6120;52.250;8.478;2023-02-15T01:08:26;19.20;;;10.70;;
12112;SDS011;6120;52.250;8.478;2023-02-15T01:10:53;22.65;;;11.82;;
12112;SDS011;6120;52.250;8.478;2023-02-15T01:13:20;18.77;;;10.10;;
12112;SDS011;6120;52.250;8.478;2023-02-15T01:15:52;23.17;;;10.88;;
12112;SDS011;6120;52.250;8.478;2023-02-15T01:18:20;20.45;;;10.23;;
12112;SDS011;6120;52.250;8.478;2023-02-15T01:20:47;16.20;;;9.45;;
12112;SDS011;6120;52.250;8.478;2023-02-15T01:23:14;22.08;;;11.27;;
12112;SDS011;6120;52.250;8.478;2023-02-15T01:25:41;20.27;;;10.20;;
12112;SDS011;6120;52.250;8.478;2023-02-15T01:28:08;21.33;;;10.90;;
12112;SDS011;6120;52.250;8.478;2023-02-15T01:30:34;21.63;;;11.00;;
12112;SDS011;6120;52.250;8.478;2023-02-15T01:33:01;21.52;;;11.00;;
12112;SDS011;6120;52.250;8.478;2023-02-15T01:35:28;23.85;;;11.65;;
12112;SDS011;6120;52.250;8.478;2023-02-15T01:37:55;21.23;;;11.27;;
12112;SDS011;6120;52.250;8.478;2023-02-15T01:40:23;23.93;;;11.40;;
12112;SDS011;6120;52.250;8.478;2023-02-15T01:42:53;18.27;;;9.57;;
12112;SDS011;6120;52.250;8.478;2023-02-15T01:45:28;22.17;;;11.15;;
12112;SDS011;6120;52.250;8.478;2023-02-15T01:50:43;20.75;;;10.60;;
12112;SDS011;6120;52.250;8.478;2023-02-15T01:53:15;22.15;;;11.45;;
12112;SDS011;6120;52.250;8.478;2023-02-15T01:55:55;24.02;;;11.70;;
12112;SDS011;6120;52.250;8.478;2023-02-15T01:58:25;21.50;;;11.63;;
12112;SDS011;6120;52.250;8.478;2023-02-15T02:00:53;21.23;;;10.75;;
12112;SDS011;6120;52.250;8.478;2023-02-15T02:03:23;22.00;;;12.20;;
12112;SDS011;6120;52.250;8.478;2023-02-15T02:05:57;25.48;;;12.38;;
12112;SDS011;6120;52.250;8.478;2023-02-15T02:08:24;24.13;;;11.50;;
12112;SDS011;6120;52.250;8.478;2023-02-15T02:10:50;23.30;;;11.60;;
12112;SDS011;6120;52.250;8.478;2023-02-15T02:13:17;23.67;;;11.88;;
12112;SDS011;6120;52.250;8.478;2023-02-15T02:15:46;22.88;;;11.95;;
12112;SDS011;6120;52.250;8.478;2023-02-15T02:21:40;21.70;;;10.48;;
12112;SDS011;6120;52.250;8.478;2023-02-15T02:38:15;21.83;;;11.38;;
12112;SDS011;6120;52.250;8.478;2023-02-15T02:41:06;25.23;;;12.20;;
12112;SDS011;6120;52.250;8.478;2023-02-15T02:46:26;27.33;;;12.23;;
12112;SDS011;6120;52.250;8.478;2023-02-15T02:48:56;29.13;;;13.25;;
12112;SDS011;6120;52.250;8.478;2023-02-15T02:51:23;25.30;;;11.65;;
12112;SDS011;6120;52.250;8.478;2023-02-15T02:53:51;26.58;;;12.82;;
12112;SDS011;6120;52.250;8.478;2023-02-15T02:57:03;22.60;;;11.48;;
12112;SDS011;6120;52.250;8.478;2023-02-15T02:59:12;27.52;;;11.75;;
12112;SDS011;6120;52.250;8.478;2023-02-15T03:01:50;26.45;;;12.52;;
12112;SDS011;6120;52.250;8.478;2023-02-15T03:04:21;24.63;;;12.57;;
12112;SDS011;6120;52.250;8.478;2023-02-15T03:06:52;22.55;;;11.98;;
12112;SDS011;6120;52.250;8.478;2023-02-15T03:12:18;25.70;;;13.20;;
12112;SDS011;6120;52.250;8.478;2023-02-15T03:14:48;22.60;;;11.80;;
12112;SDS011;6120;52.250;8.478;2023-02-15T03:17:17;25.08;;;12.05;;
12112;SDS011;6120;52.250;8.478;2023-02-15T03:19:46;27.02;;;12.55;;
12112;SDS011;6120;52.250;8.478;2023-02-15T03:22:19;21.65;;;12.05;;
12112;SDS011;6120;52.250;8.478;2023-02-15T03:24:53;28.90;;;12.55;;
12112;SDS011;6120;52.250;8.478;2023-02-15T03:27:24;23.40;;;12.27;;
12112;SDS011;6120;52.250;8.478;2023-02-15T03:29:55;23.92;;;12.80;;
12112;SDS011;6120;52.250;8.478;2023-02-15T03:32:23;26.95;;;12.75;;
12112;SDS011;6120;52.250;8.478;2023-02-15T03:34:51;26.13;;;12.20;;
12112;SDS011;6120;52.250;8.478;2023-02-15T03:37:21;27.58;;;12.65;;
12112;SDS011;6120;52.250;8.478;2023-02-15T03:39:54;27.10;;;13.32;;
12112;SDS011;6120;52.250;8.478;2023-02-15T03:42:43;26.38;;;12.25;;
12112;SDS011;6120;52.250;8.478;2023-02-15T03:45:11;27.63;;;12.90;;
12112;SDS011;6120;52.250;8.478;2023-02-15T03:47:43;26.52;;;11.93;;
12112;SDS011;6120;52.250;8.478;2023-02-15T03:50:12;26.92;;;12.55;;
12112;SDS011;6120;52.250;8.478;2023-02-15T03:52:59;27.48;;;13.10;;
12112;SDS011;6120;52.250;8.478;2023-02-15T03:55:27;28.20;;;12.52;;
12112;SDS011;6120;52.250;8.478;2023-02-15T03:57:54;32.08;;;14.20;;
12112;SDS011;6120;52.250;8.478;2023-02-15T04:00:41;25.70;;;12.15;;
12112;SDS011;6120;52.250;8.478;2023-02-15T04:03:39;28.95;;;13.80;;
12112;SDS011;6120;52.250;8.478;2023-02-15T04:06:06;30.33;;;13.77;;
12112;SDS011;6120;52.250;8.478;2023-02-15T04:08:33;26.30;;;12.95;;
12112;SDS011;6120;52.250;8.478;2023-02-15T04:11:18;30.52;;;13.10;;
12112;SDS011;6120;52.250;8.478;2023-02-15T04:13:45;26.40;;;12.80;;
12112;SDS011;6120;52.250;8.478;2023-02-15T04:16:11;26.95;;;12.88;;
12112;SDS011;6120;52.250;8.478;2023-02-15T04:18:40;28.02;;;12.82;;
12112;SDS011;6120;52.250;8.478;2023-02-15T04:21:27;26.90;;;12.63;;
12112;SDS011;6120;52.250;8.478;2023-02-15T04:24:13;28.70;;;13.20;;
12112;SDS011;6120;52.250;8.478;2023-02-15T04:26:59;26.83;;;12.73;;
12112;SDS011;6120;52.250;8.478;2023-02-15T04:29:26;29.23;;;13.07;;
12112;SDS011;6120;52.250;8.478;2023-02-15T04:31:54;27.15;;;12.52;;
12112;SDS011;6120;52.250;8.478;2023-02-15T04:34:21;27.30;;;13.23;;
12112;SDS011;6120;52.250;8.478;2023-02-15T04:36:48;26.60;;;13.63;;
12112;SDS011;6120;52.250;8.478;2023-02-15T04:39:16;25.77;;;12.75;;
12112;SDS011;6120;52.250;8.478;2023-02-15T04:41:44;26.63;;;13.57;;
12112;SDS011;6120;52.250;8.478;2023-02-15T04:44:11;27.15;;;13.10;;
12112;SDS011;6120;52.250;8.478;2023-02-15T04:46:37;28.13;;;13.40;;
12112;SDS011;6120;52.250;8.478;2023-02-15T04:49:04;31.30;;;14.23;;
12112;SDS011;6120;52.250;8.478;2023-02-15T04:51:31;29.00;;;13.52;;
12112;SDS011;6120;52.250;8.478;2023-02-15T04:53:57;28.95;;;13.02;;
12112;SDS011;6120;52.250;8.478;2023-02-15T04:56:24;27.88;;;13.30;;
12112;SDS011;6120;52.250;8.478;2023-02-15T04:58:50;29.33;;;12.93;;
12112;SDS011;6120;52.250;8.478;2023-02-15T05:01:17;25.50;;;12.02;;
12112;SDS011;6120;52.250;8.478;2023-02-15T05:03:44;30.17;;;13.37;;
12112;SDS011;6120;52.250;8.478;2023-02-15T05:06:11;23.88;;;12.18;;
12112;SDS011;6120;52.250;8.478;2023-02-15T05:08:38;28.50;;;12.70;;
12112;SDS011;6120;52.250;8.478;2023-02-15T05:11:04;27.67;;;12.77;;
12112;SDS011;6120;52.250;8.478;2023-02-15T05:13:31;30.23;;;13.80;;
12112;SDS011;6120;52.250;8.478;2023-02-15T05:15:57;27.42;;;13.82;;
12112;SDS011;6120;52.250;8.478;2023-02-15T05:18:24;26.58;;;13.02;;
12112;SDS011;6120;52.250;8.478;2023-02-15T05:20:51;28.38;;;13.98;;
12112;SDS011;6120;52.250;8.478;2023-02-15T05:23:17;30.45;;;13.70;;
12112;SDS011;6120;52.250;8.478;2023-02-15T05:25:48;26.17;;;13.43;;
12112;SDS011;6120;52.250;8.478;2023-02-15T05:28:47;28.55;;;13.73;;
12112;SDS011;6120;52.250;8.478;2023-02-15T05:31:15;25.23;;;12.45;;
12112;SDS011;6120;52.250;8.478;2023-02-15T05:33:43;29.75;;;12.85;;
12112;SDS011;6120;52.250;8.478;2023-02-15T05:36:10;26.23;;;13.15;;
12112;SDS011;6120;52.250;8.478;2023-02-15T05:38:37;29.63;;;13.35;;
12112;SDS011;6120;52.250;8.478;2023-02-15T05:41:05;27.65;;;12.65;;
12112;SDS011;6120;52.250;8.478;2023-02-15T05:43:32;26.23;;;13.32;;
12112;SDS011;6120;52.250;8.478;2023-02-15T05:45:59;27.77;;;12.20;;
12112;SDS011;6120;52.250;8.478;2023-02-15T05:48:27;27.30;;;12.98;;
12112;SDS011;6120;52.250;8.478;2023-02-15T05:51:10;28.38;;;13.35;;
12112;SDS011;6120;52.250;8.478;2023-02-15T05:53:39;27.05;;;13.02;;
12112;SDS011;6120;52.250;8.478;2023-02-15T05:56:07;24.83;;;12.73;;
12112;SDS011;6120;52.250;8.478;2023-02-15T05:58:36;27.08;;;12.80;;
12112;SDS011;6120;52.250;8.478;2023-02-15T06:01:22;29.45;;;13.57;;
12112;SDS011;6120;52.250;8.478;2023-02-15T06:03:49;27.65;;;12.90;;
12112;SDS011;6120;52.250;8.478;2023-02-15T06:06:16;26.70;;;13.05;;
12112;SDS011;6120;52.250;8.478;2023-02-15T06:08:42;25.92;;;12.77;;
12112;SDS011;6120;52.250;8.478;2023-02-15T06:11:09;27.90;;;13.38;;
12112;SDS011;6120;52.250;8.478;2023-02-15T06:13:37;29.92;;;13.68;;
12112;SDS011;6120;52.250;8.478;2023-02-15T06:16:04;31.70;;;14.33;;
12112;SDS011;6120;52.250;8.478;2023-02-15T06:18:32;28.13;;;13.02;;
12112;SDS011;6120;52.250;8.478;2023-02-15T06:20:59;26.58;;;11.52;;
12112;SDS011;6120;52.250;8.478;2023-02-15T06:23:25;27.48;;;13.48;;
12112;SDS011;6120;52.250;8.478;2023-02-15T06:25:52;23.42;;;11.80;;
12112;SDS011;6120;52.250;8.478;2023-02-15T06:28:18;24.42;;;11.73;;
12112;SDS011;6120;52.250;8.478;2023-02-15T06:30:45;22.38;;;11.15;;
12112;SDS011;6120;52.250;8.478;2023-02-15T06:33:12;22.55;;;10.88;;
12112;SDS011;6120;52.250;8.478;2023-02-15T06:35:39;24.30;;;12.25;;
12112;SDS011;6120;52.250;8.478;2023-02-15T06:38:05;24.50;;;12.57;;
12112;SDS011;6120;52.250;8.478;2023-02-15T06:40:32;21.58;;;11.00;;
12112;SDS011;6120;52.250;8.478;2023-02-15T06:42:59;23.55;;;12.13;;
12112;SDS011;6120;52.250;8.478;2023-02-15T06:45:25;27.60;;;13.15;;
12112;SDS011;6120;52.250;8.478;2023-02-15T06:47:52;27.60;;;12.68;;
12112;SDS011;6120;52.250;8.478;2023-02-15T06:50:18;23.75;;;12.30;;
12112;SDS011;6120;52.250;8.478;2023-02-15T06:52:45;23.45;;;12.68;;
12112;SDS011;6120;52.250;8.478;2023-02-15T06:55:12;24.73;;;12.38;;
12112;SDS011;6120;52.250;8.478;2023-02-15T06:57:38;22.63;;;12.00;;
12112;SDS011;6120;52.250;8.478;2023-02-15T07:00:05;23.27;;;11.77;;
12112;SDS011;6120;52.250;8.478;2023-02-15T07:02:32;23.70;;;12.07;;
12112;SDS011;6120;52.250;8.478;2023-02-15T07:04:59;22.17;;;11.63;;
12112;SDS011;6120;52.250;8.478;2023-02-15T07:07:26;21.90;;;11.48;;
12112;SDS011;6120;52.250;8.478;2023-02-15T07:09:52;22.08;;;11.75;;
12112;SDS011;6120;52.250;8.478;2023-02-15T07:12:19;21.00;;;10.98;;
12112;SDS011;6120;52.250;8.478;2023-02-15T07:15:04;25.38;;;11.52;;
12112;SDS011;6120;52.250;8.478;2023-02-15T07:17:33;28.25;;;12.55;;
12112;SDS011;6120;52.250;8.478;2023-02-15T07:20:03;22.55;;;11.90;;
12112;SDS011;6120;52.250;8.478;2023-02-15T07:22:30;21.98;;;10.80;;
12112;SDS011;6120;52.250;8.478;2023-02-15T07:24:57;23.52;;;11.27;;
12112;SDS011;6120;52.250;8.478;2023-02-15T07:27:24;24.90;;;12.90;;
12112;SDS011;6120;52.250;8.478;2023-02-15T07:29:50;24.95;;;12.82;;
12112;SDS011;6120;52.250;8.478;2023-02-15T07:32:17;23.38;;;11.15;;
12112;SDS011;6120;52.250;8.478;2023-02-15T07:34:43;23.42;;;12.55;;
12112;SDS011;6120;52.250;8.478;2023-02-15T07:37:10;26.02;;;12.07;;
12112;SDS011;6120;52.250;8.478;2023-02-15T07:39:37;21.08;;;11.55;;
12112;SDS011;6120;52.250;8.478;2023-02-15T07:42:03;25.00;;;12.43;;
12112;SDS011;6120;52.250;8.478;2023-02-15T07:44:30;22.77;;;11.23;;
12112;SDS011;6120;52.250;8.478;2023-02-15T07:46:57;23.02;;;11.75;;
12112;SDS011;6120;52.250;8.478;2023-02-15T07:49:23;26.67;;;13.07;;
12112;SDS011;6120;52.250;8.478;2023-02-15T07:51:50;25.95;;;12.63;;
12112;SDS011;6120;52.250;8.478;2023-02-15T07:54:16;22.05;;;12.35;;
12112;SDS011;6120;52.250;8.478;2023-02-15T07:56:43;20.42;;;11.07;;
12112;SDS011;6120;52.250;8.478;2023-02-15T07:59:10;19.38;;;9.88;;
12112;SDS011;6120;52.250;8.478;2023-02-15T08:01:37;21.98;;;10.52;;
12112;SDS011;6120;52.250;8.478;2023-02-15T08:04:05;20.70;;;10.43;;
12112;SDS011;6120;52.250;8.478;2023-02-15T08:06:34;21.88;;;10.50;;
12112;SDS011;6120;52.250;8.478;2023-02-15T08:09:05;19.85;;;10.60;;
12112;SDS011;6120;52.250;8.478;2023-02-15T08:11:37;21.02;;;10.30;;
12112;SDS011;6120;52.250;8.478;2023-02-15T08:16:44;20.92;;;10.27;;
12112;SDS011;6120;52.250;8.478;2023-02-15T08:21:42;20.55;;;11.57;;
12112;SDS011;6120;52.250;8.478;2023-02-15T08:24:11;22.02;;;11.32;;
12112;SDS011;6120;52.250;8.478;2023-02-15T08:26:41;22.63;;;10.80;;
12112;SDS011;6120;52.250;8.478;2023-02-15T08:29:09;18.83;;;9.87;;
12112;SDS011;6120;52.250;8.478;2023-02-15T08:31:36;21.45;;;10.73;;
12112;SDS011;6120;52.250;8.478;2023-02-15T08:34:04;22.50;;;12.15;;
12112;SDS011;6120;52.250;8.478;2023-02-15T08:36:31;27.13;;;13.13;;
12112;SDS011;6120;52.250;8.478;2023-02-15T08:38:58;26.23;;;12.55;;
12112;SDS011;6120;52.250;8.478;2023-02-15T08:41:27;19.63;;;10.73;;
12112;SDS011;6120;52.250;8.478;2023-02-15T08:43:57;28.17;;;12.65;;
12112;SDS011;6120;52.250;8.478;2023-02-15T08:46:25;21.95;;;11.77;;
12112;SDS011;6120;52.250;8.478;2023-02-15T08:48:53;21.33;;;11.77;;
12112;SDS011;6120;52.250;8.478;2023-02-15T08:51:22;23.85;;;12.70;;
12112;SDS011;6120;52.250;8.478;2023-02-15T08:53:51;27.80;;;13.35;;
12112;SDS011;6120;52.250;8.478;2023-02-15T08:56:20;22.33;;;11.77;;
12112;SDS011;6120;52.250;8.478;2023-02-15T08:58:48;22.50;;;11.77;;
12112;SDS011;6120;52.250;8.478;2023-02-15T09:01:17;18.95;;;10.48;;
12112;SDS011;6120;52.250;8.478;2023-02-15T09:03:49;22.65;;;11.02;;
12112;SDS011;6120;52.250;8.478;2023-02-15T09:06:21;21.92;;;10.75;;
12112;SDS011;6120;52.250;8.478;2023-02-15T09:08:49;25.15;;;12.93;;
12112;SDS011;6120;52.250;8.478;2023-02-15T09:11:22;21.85;;;11.15;;
12112;SDS011;6120;52.250;8.478;2023-02-15T09:13:54;21.45;;;10.63;;
12112;SDS011;6120;52.250;8.478;2023-02-15T09:16:23;24.63;;;12.60;;
12112;SDS011;6120;52.250;8.478;2023-02-15T09:18:50;26.05;;;13.05;;
12112;SDS011;6120;52.250;8.478;2023-02-15T09:21:19;23.43;;;11.53;;
12112;SDS011;6120;52.250;8.478;2023-02-15T09:23:49;25.40;;;12.60;;
12112;SDS011;6120;52.250;8.478;2023-02-15T09:26:18;24.38;;;12.65;;
12112;SDS011;6120;52.250;8.478;2023-02-15T09:28:46;26.63;;;13.02;;
12112;SDS011;6120;52.250;8.478;2023-02-15T09:31:15;26.13;;;13.20;;
12112;SDS011;6120;52.250;8.478;2023-02-15T09:33:47;23.63;;;11.43;;
12112;SDS011;6120;52.250;8.478;2023-02-15T09:38:41;22.42;;;11.38;;
12112;SDS011;6120;52.250;8.478;2023-02-15T09:44:17;29.27;;;13.23;;
12112;SDS011;6120;52.250;8.478;2023-02-15T09:49:45;24.95;;;12.48;;
12112;SDS011;6120;52.250;8.478;2023-02-15T09:58:07;28.13;;;13.38;;
12112;SDS011;6120;52.250;8.478;2023-02-15T10:01:09;26.00;;;13.38;;
12112;SDS011;6120;52.250;8.478;2023-02-15T10:06:31;27.48;;;13.50;;
12112;SDS011;6120;52.250;8.478;2023-02-15T10:14:33;28.60;;;13.52;;
12112;SDS011;6120;52.250;8.478;2023-02-15T10:27:48;27.75;;;12.85;;
12112;SDS011;6120;52.250;8.478;2023-02-15T10:30:21;22.88;;;12.07;;
12112;SDS011;6120;52.250;8.478;2023-02-15T10:40:35;22.50;;;12.00;;
12112;SDS011;6120;52.250;8.478;2023-02-15T10:45:39;24.67;;;12.20;;
12112;SDS011;6120;52.250;8.478;2023-02-15T10:51:18;23.63;;;11.68;;
12112;SDS011;6120;52.250;8.478;2023-02-15T10:56:51;24.63;;;12.18;;
12112;SDS011;6120;52.250;8.478;2023-02-15T11:07:53;21.33;;;11.77;;
12112;SDS011;6120;52.250;8.478;2023-02-15T11:10:27;23.77;;;11.52;;
12112;SDS011;6120;52.250;8.478;2023-02-15T11:12:55;23.80;;;11.45;;
12112;SDS011;6120;52.250;8.478;2023-02-15T11:18:05;21.33;;;11.02;;
12112;SDS011;6120;52.250;8.478;2023-02-15T11:20:56;23.17;;;11.02;;
12112;SDS011;6120;52.250;8.478;2023-02-15T11:23:28;22.25;;;10.02;;
12112;SDS011;6120;52.250;8.478;2023-02-15T11:25:59;19.58;;;10.45;;
12112;SDS011;6120;52.250;8.478;2023-02-15T11:28:30;23.65;;;10.93;;
12112;SDS011;6120;52.250;8.478;2023-02-15T11:31:00;21.90;;;10.95;;
12112;SDS011;6120;52.250;8.478;2023-02-15T11:33:36;19.58;;;10.38;;
12112;SDS011;6120;52.250;8.478;2023-02-15T11:36:06;20.48;;;10.45;;
12112;SDS011;6120;52.250;8.478;2023-02-15T11:38:35;20.52;;;10.02;;
12112;SDS011;6120;52.250;8.478;2023-02-15T11:41:07;22.05;;;9.70;;
12112;SDS011;6120;52.250;8.478;2023-02-15T11:43:38;21.48;;;10.95;;
12112;SDS011;6120;52.250;8.478;2023-02-15T11:46:07;20.73;;;10.30;;
12112;SDS011;6120;52.250;8.478;2023-02-15T11:48:37;17.23;;;9.75;;
12112;SDS011;6120;52.250;8.478;2023-02-15T11:51:04;19.17;;;9.65;;
12112;SDS011;6120;52.250;8.478;2023-02-15T11:53:32;20.02;;;10.07;;
12112;SDS011;6120;52.250;8.478;2023-02-15T12:00:58;17.92;;;10.10;;
12112;SDS011;6120;52.250;8.478;2023-02-15T12:06:13;16.67;;;8.75;;
12112;SDS011;6120;52.250;8.478;2023-02-15T12:08:44;15.70;;;8.73;;
12112;SDS011;6120;52.250;8.478;2023-02-15T12:11:17;15.93;;;9.13;;
12112;SDS011;6120;52.250;8.478;2023-02-15T12:13:59;17.52;;;9.30;;
12112;SDS011;6120;52.250;8.478;2023-02-15T12:16:27;15.07;;;8.57;;
12112;SDS011;6120;52.250;8.478;2023-02-15T12:18:56;18.67;;;9.50;;
12112;SDS011;6120;52.250;8.478;2023-02-15T12:21:34;19.38;;;8.90;;
12112;SDS011;6120;52.250;8.478;2023-02-15T12:24:48;15.20;;;8.23;;
12112;SDS011;6120;52.250;8.478;2023-02-15T12:27:16;15.65;;;9.15;;
12112;SDS011;6120;52.250;8.478;2023-02-15T12:29:49;17.08;;;9.38;;
12112;SDS011;6120;52.250;8.478;2023-02-15T12:32:25;16.13;;;9.13;;
12112;SDS011;6120;52.250;8.478;2023-02-15T12:34:55;14.93;;;7.95;;
12112;SDS011;6120;52.250;8.478;2023-02-15T12:37:27;16.83;;;9.55;;
12112;SDS011;6120;52.250;8.478;2023-02-15T12:39:58;17.38;;;9.27;;
12112;SDS011;6120;52.250;8.478;2023-02-15T12:42:27;17.90;;;9.15;;
12112;SDS011;6120;52.250;8.478;2023-02-15T12:45:03;16.63;;;9.15;;
12112;SDS011;6120;52.250;8.478;2023-02-15T12:47:35;15.07;;;8.68;;
12112;SDS011;6120;52.250;8.478;2023-02-15T12:50:06;17.42;;;9.23;;
12112;SDS011;6120;52.250;8.478;2023-02-15T12:52:37;16.50;;;9.32;;
12112;SDS011;6120;52.250;8.478;2023-02-15T12:55:40;18.77;;;9.97;;
12112;SDS011;6120;52.250;8.478;2023-02-15T12:58:05;17.80;;;8.77;;
12112;SDS011;6120;52.250;8.478;2023-02-15T13:00:46;16.00;;;9.23;;
12112;SDS011;6120;52.250;8.478;2023-02-15T13:03:16;17.00;;;9.57;;
12112;SDS011;6120;52.250;8.478;2023-02-15T13:05:46;18.55;;;9.18;;
12112;SDS011;6120;52.250;8.478;2023-02-15T13:10:53;18.57;;;10.17;;
12112;SDS011;6120;52.250;8.478;2023-02-15T13:13:22;20.42;;;10.30;;
12112;SDS011;6120;52.250;8.478;2023-02-15T13:15:52;18.10;;;8.93;;
12112;SDS011;6120;52.250;8.478;2023-02-15T13:18:28;18.35;;;10.57;;
12112;SDS011;6120;52.250;8.478;2023-02-15T13:20:57;17.58;;;9.82;;
12112;SDS011;6120;52.250;8.478;2023-02-15T13:23:28;21.52;;;11.52;;
12112;SDS011;6120;52.250;8.478;2023-02-15T13:25:56;17.55;;;10.05;;
12112;SDS011;6120;52.250;8.478;2023-02-15T13:28:27;17.67;;;10.35;;
12112;SDS011;6120;52.250;8.478;2023-02-15T13:31:01;17.55;;;9.98;;
12112;SDS011;6120;52.250;8.478;2023-02-15T13:33:33;19.23;;;10.35;;
12112;SDS011;6120;52.250;8.478;2023-02-15T13:36:04;20.17;;;10.30;;
12112;SDS011;6120;52.250;8.478;2023-02-15T13:38:42;22.90;;;10.50;;
12112;SDS011;6120;52.250;8.478;2023-02-15T13:41:23;18.30;;;10.48;;
12112;SDS011;6120;52.250;8.478;2023-02-15T13:49:13;19.00;;;10.52;;
12112;SDS011;6120;52.250;8.478;2023-02-15T13:51:49;19.63;;;9.50;;
12112;SDS011;6120;52.250;8.478;2023-02-15T13:59:54;19.17;;;10.13;;
12112;SDS011;6120;52.250;8.478;2023-02-15T14:10:54;16.73;;;9.45;;
12112;SDS011;6120;52.250;8.478;2023-02-15T14:18:40;21.38;;;10.93;;
12112;SDS011;6120;52.250;8.478;2023-02-15T14:21:21;20.10;;;10.55;;
12112;SDS011;6120;52.250;8.478;2023-02-15T14:31:32;15.60;;;9.02;;
12112;SDS011;6120;52.250;8.478;2023-02-15T14:34:01;16.30;;;9.32;;
12112;SDS011;6120;52.250;8.478;2023-02-15T14:39:07;17.67;;;9.05;;
12112;SDS011;6120;52.250;8.478;2023-02-15T14:47:48;15.38;;;9.02;;
12112;SDS011;6120;52.250;8.478;2023-02-15T14:53:14;16.92;;;9.73;;
12112;SDS011;6120;52.250;8.478;2023-02-15T14:58:35;14.45;;;8.70;;
12112;SDS011;6120;52.250;8.478;2023-02-15T15:01:29;16.67;;;10.17;;
12112;SDS011;6120;52.250;8.478;2023-02-15T15:04:01;15.25;;;9.30;;
12112;SDS011;6120;52.250;8.478;2023-02-15T15:06:35;16.08;;;9.77;;
12112;SDS011;6120;52.250;8.478;2023-02-15T15:14:11;15.35;;;9.50;;
12112;SDS011;6120;52.250;8.478;2023-02-15T15:17:00;18.13;;;10.32;;
12112;SDS011;6120;52.250;8.478;2023-02-15T15:30:54;16.80;;;9.75;;
12112;SDS011;6120;52.250;8.478;2023-02-15T15:32:59;15.03;;;8.40;;
12112;SDS011;6120;52.250;8.478;2023-02-15T15:49:56;17.88;;;9.95;;
12112;SDS011;6120;52.250;8.478;2023-02-15T15:52:23;16.63;;;9.15;;
12112;SDS011;6120;52.250;8.478;2023-02-15T15:54:56;15.00;;;8.93;;
12112;SDS011;6120;52.250;8.478;2023-02-15T15:57:30;16.35;;;9.63;;
12112;SDS011;6120;52.250;8.478;2023-02-15T16:00:04;18.27;;;9.18;;
12112;SDS011;6120;52.250;8.478;2023-02-15T16:02:32;16.17;;;9.63;;
12112;SDS011;6120;52.250;8.478;2023-02-15T16:05:08;15.38;;;8.80;;
12112;SDS011;6120;52.250;8.478;2023-02-15T16:07:35;20.13;;;10.20;;
12112;SDS011;6120;52.250;8.478;2023-02-15T16:10:06;18.05;;;9.50;;
12112;SDS011;6120;52.250;8.478;2023-02-15T16:12:34;19.20;;;10.38;;
12112;SDS011;6120;52.250;8.478;2023-02-15T16:15:16;18.67;;;9.18;;
12112;SDS011;6120;52.250;8.478;2023-02-15T16:17:45;18.05;;;9.55;;
12112;SDS011;6120;52.250;8.478;2023-02-15T16:20:22;16.85;;;8.90;;
12112;SDS011;6120;52.250;8.478;2023-02-15T16:22:57;20.50;;;9.23;;
12112;SDS011;6120;52.250;8.478;2023-02-15T16:26:11;19.03;;;9.43;;
12112;SDS011;6120;52.250;8.478;2023-02-15T16:28:53;18.67;;;9.23;;
12112;SDS011;6120;52.250;8.478;2023-02-15T16:31:21;14.95;;;8.43;;
12112;SDS011;6120;52.250;8.478;2023-02-15T16:33:51;15.98;;;8.40;;
12112;SDS011;6120;52.250;8.478;2023-02-15T16:36:25;16.27;;;8.35;;
12112;SDS011;6120;52.250;8.478;2023-02-15T16:43:50;15.90;;;8.82;;
12112;SDS011;6120;52.250;8.478;2023-02-15T16:46:20;16.52;;;8.77;;
12112;SDS011;6120;52.250;8.478;2023-02-15T16:48:49;17.63;;;9.30;;
12112;SDS011;6120;52.250;8.478;2023-02-15T16:51:29;14.68;;;8.07;;
12112;SDS011;6120;52.250;8.478;2023-02-15T16:58:54;16.35;;;8.73;;
12112;SDS011;6120;52.250;8.478;2023-02-15T17:01:22;17.33;;;8.52;;
12112;SDS011;6120;52.250;8.478;2023-02-15T17:03:52;18.75;;;9.15;;
12112;SDS011;6120;52.250;8.478;2023-02-15T17:06:37;16.02;;;9.35;;
12112;SDS011;6120;52.250;8.478;2023-02-15T17:09:05;19.15;;;10.23;;
12112;SDS011;6120;52.250;8.478;2023-02-15T17:16:35;17.50;;;8.45;;
12112;SDS011;6120;52.250;8.478;2023-02-15T17:19:14;17.63;;;8.75;;
12112;SDS011;6120;52.250;8.478;2023-02-15T17:21:46;18.00;;;8.98;;
12112;SDS011;6120;52.250;8.478;2023-02-15T17:24:16;15.15;;;8.27;;
12112;SDS011;6120;52.250;8.478;2023-02-15T17:26:47;15.85;;;8.90;;
12112;SDS011;6120;52.250;8.478;2023-02-15T17:29:28;16.10;;;8.23;;
12112;SDS011;6120;52.250;8.478;2023-02-15T17:31:59;18.67;;;9.48;;
12112;SDS011;6120;52.250;8.478;2023-02-15T17:39:51;14.38;;;8.23;;
12112;SDS011;6120;52.250;8.478;2023-02-15T17:42:18;17.15;;;8.20;;
12112;SDS011;6120;52.250;8.478;2023-02-15T17:44:45;17.50;;;8.70;;
12112;SDS011;6120;52.250;8.478;2023-02-15T17:47:19;16.90;;;8.90;;
12112;SDS011;6120;52.250;8.478;2023-02-15T17:49:47;15.75;;;8.38;;
12112;SDS011;6120;52.250;8.478;2023-02-15T17:52:15;16.30;;;8.52;;
12112;SDS011;6120;52.250;8.478;2023-02-15T17:54:43;16.70;;;8.65;;
12112;SDS011;6120;52.250;8.478;2023-02-15T17:57:29;15.18;;;8.02;;
12112;SDS011;6120;52.250;8.478;2023-02-15T17:59:56;15.52;;;9.07;;
12112;SDS011;6120;52.250;8.478;2023-02-15T18:02:42;19.05;;;9.13;;
12112;SDS011;6120;52.250;8.478;2023-02-15T18:05:27;19.85;;;9.80;;
12112;SDS011;6120;52.250;8.478;2023-02-15T18:08:16;17.02;;;9.55;;
12112;SDS011;6120;52.250;8.478;2023-02-15T18:11:02;17.13;;;9.80;;
12112;SDS011;6120;52.250;8.478;2023-02-15T18:13:47;16.20;;;8.32;;
12112;SDS011;6120;52.250;8.478;2023-02-15T18:16:14;21.58;;;11.20;;
12112;SDS011;6120;52.250;8.478;2023-02-15T18:18:48;19.38;;;11.07;;
12112;SDS011;6120;52.250;8.478;2023-02-15T18:21:15;18.35;;;10.07;;
12112;SDS011;6120;52.250;8.478;2023-02-15T18:23:41;20.23;;;9.70;;
12112;SDS011;6120;52.250;8.478;2023-02-15T18:26:17;18.05;;;9.98;;